Time;durP1;ratioP1;P1;durP2;ratioP2;P2;SDS_P1;SDS_P2;PMS_P1;PMS_P2;Temp;Humidity;BMP_temperature;BMP_pressure;BME280_temperature;BME280_humidity;BME280_pressure;Samples;Min_cycle;Max_cycle;Signal;HPM_P1;HPM_P2
2022/01/18 00:01:17;;;;;;;13.20;3.70;;;22.00;99.90;;;;;;4975716;28;20057;-73
2022/01/18 00:03:44;;;;;;;21.67;4.57;;;22.00;99.90;;;;;;4975481;28;20034;-72
2022/01/18 00:06:12;;;;;;;19.58;4.68;;;22.00;99.90;;;;;;4975374;28;20407;-72
2022/01/18 00:08:39;;;;;;;23.33;4.13;;;22.00;99.90;;;;;;4975306;28;20038;-72
2022/01/18 00:11:07;;;;;;;9.93;4.00;;;22.00;99.90;;;;;;4975422;28;20047;-72
2022/01/18 00:13:39;;;;;;;23.50;4.35;;;22.20;99.90;;;;;;4975531;28;20019;-72
2022/01/18 00:16:11;;;;;;;19.77;4.53;;;22.20;99.90;;;;;;4975088;28;20121;-73
2022/01/18 00:18:39;;;;;;;16.65;4.18;;;22.20;99.90;;;;;;4975315;28;20102;-72
2022/01/18 00:23:36;;;;;;;17.63;4.25;;;22.30;99.90;;;;;;4974860;28;20039;-72
2022/01/18 00:26:05;;;;;;;13.82;4.18;;;22.30;99.90;;;;;;4975226;28;20031;-73
2022/01/18 00:28:32;;;;;;;14.45;3.10;;;22.20;99.90;;;;;;4975200;28;20033;-72
2022/01/18 00:36:20;;;;;;;18.15;3.60;;;22.20;99.90;;;;;;4974992;28;20035;-73
2022/01/18 00:38:48;;;;;;;13.25;4.70;;;22.20;99.90;;;;;;4975235;28;20027;-72
2022/01/18 00:41:18;;;;;;;13.07;3.85;;;22.40;99.90;;;;;;4974913;28;20370;-73
2022/01/18 00:43:45;;;;;;;16.20;3.97;;;22.30;99.90;;;;;;4975306;28;20019;-72
2022/01/18 00:46:14;;;;;;;9.68;3.20;;;22.40;99.90;;;;;;4974795;28;20042;-73
2022/01/18 00:48:42;;;;;;;10.85;3.78;;;22.50;99.90;;;;;;4974860;28;20019;-72
2022/01/18 00:51:13;;;;;;;15.05;4.40;;;22.50;99.90;;;;;;4975251;28;20093;-72
2022/01/18 00:53:42;;;;;;;13.45;4.20;;;22.60;99.90;;;;;;4974947;28;20019;-72
2022/01/18 00:58:38;;;;;;;9.27;3.10;;;22.50;99.90;;;;;;4974807;28;20077;-72
2022/01/18 01:01:06;;;;;;;8.93;3.67;;;22.70;99.90;;;;;;4974706;28;20089;-72
2022/01/18 01:03:33;;;;;;;15.43;4.03;;;22.70;99.90;;;;;;4974633;28;20047;-71
2022/01/18 01:06:01;;;;;;;11.35;4.05;;;22.60;99.90;;;;;;4974516;28;20027;-79
2022/01/18 01:08:28;;;;;;;15.77;3.47;;;22.50;99.90;;;;;;4974628;28;20022;-72
2022/01/18 01:10:56;;;;;;;12.77;3.95;;;22.30;99.90;;;;;;4974610;28;20081;-72
2022/01/18 01:13:24;;;;;;;13.20;4.18;;;22.20;99.90;;;;;;4974668;28;20452;-72
2022/01/18 01:32:45;;;;;;;12.48;4.22;;;22.60;99.90;;;;;;4974636;28;20081;-72
2022/01/18 01:43:14;;;;;;;13.70;3.80;;;23.00;99.90;;;;;;4976859;28;20085;-72
2022/01/18 01:45:42;;;;;;;17.55;3.92;;;22.90;99.90;;;;;;4978150;28;20389;-73
2022/01/18 01:48:09;;;;;;;20.83;4.03;;;22.80;99.90;;;;;;4977998;28;20027;-72
2022/01/18 01:50:51;;;;;;;13.30;3.72;;;22.80;99.90;;;;;;4978170;28;20058;-72
2022/01/18 01:53:22;;;;;;;18.42;4.18;;;22.90;99.90;;;;;;4978033;28;20054;-72
2022/01/18 01:55:50;;;;;;;16.17;4.35;;;23.00;99.90;;;;;;4977894;28;20098;-73
2022/01/18 01:58:21;;;;;;;18.95;5.30;;;23.00;99.90;;;;;;4977977;28;20023;-73
2022/01/18 02:00:55;;;;;;;14.80;3.60;;;22.90;99.90;;;;;;4977900;28;20027;-72
2022/01/18 02:03:23;;;;;;;12.13;3.20;;;22.60;99.90;;;;;;4976410;28;20029;-72
2022/01/18 02:05:51;;;;;;;8.73;3.47;;;22.60;99.90;;;;;;4977626;28;20077;-72
2022/01/18 02:08:19;;;;;;;13.40;2.83;;;22.70;99.90;;;;;;4977765;28;20522;-72
2022/01/18 02:10:46;;;;;;;18.27;4.90;;;22.70;99.90;;;;;;4977679;28;20031;-73
2022/01/18 02:13:16;;;;;;;12.27;3.25;;;22.80;99.90;;;;;;4977534;28;20027;-73
2022/01/18 02:24:11;;;;;;;20.27;3.22;;;22.80;99.90;;;;;;4977633;28;20130;-73
2022/01/18 02:26:39;;;;;;;13.77;3.25;;;22.70;99.90;;;;;;4977330;28;20019;-73
2022/01/18 02:29:09;;;;;;;12.38;2.70;;;22.60;99.90;;;;;;4977146;28;20027;-72
2022/01/18 02:31:37;;;;;;;11.55;3.63;;;22.50;99.90;;;;;;4977366;28;20195;-72
2022/01/18 02:34:07;;;;;;;13.25;4.20;;;22.50;99.90;;;;;;4977193;28;20027;-72
2022/01/18 02:36:34;;;;;;;19.48;3.75;;;22.70;99.90;;;;;;4977065;28;20081;-72
2022/01/18 02:39:03;;;;;;;9.82;3.10;;;22.50;99.90;;;;;;4977235;28;20045;-71
2022/01/18 02:41:32;;;;;;;14.98;3.88;;;22.40;99.90;;;;;;4977227;28;20423;-71
2022/01/18 02:44:13;;;;;;;11.73;4.03;;;22.40;99.90;;;;;;4977418;28;20023;-72
2022/01/18 02:46:43;;;;;;;7.25;2.83;;;22.50;99.90;;;;;;4976905;28;20112;-72
2022/01/18 02:49:10;;;;;;;12.13;3.45;;;22.60;99.90;;;;;;4976663;28;20480;-73
2022/01/18 02:51:37;;;;;;;8.40;3.42;;;22.60;99.90;;;;;;4976718;28;20027;-72
2022/01/18 02:54:07;;;;;;;14.90;3.60;;;22.40;99.90;;;;;;4975140;28;20058;-72
2022/01/18 02:56:41;;;;;;;21.13;3.97;;;22.40;99.90;;;;;;4976495;28;20035;-72
2022/01/18 02:59:17;;;;;;;12.82;3.80;;;22.30;99.90;;;;;;4976793;28;20030;-73
2022/01/18 03:04:29;;;;;;;;;;;22.40;99.90;;;;;;4977528;28;20054;-72
2022/01/18 03:06:57;;;;;;;14.25;4.32;;;22.60;99.90;;;;;;4976599;28;19913;-72
2022/01/18 03:09:24;;;;;;;11.32;3.72;;;22.60;99.90;;;;;;4976842;28;20027;-72
2022/01/18 03:11:51;;;;;;;16.25;3.17;;;22.50;99.90;;;;;;4976584;28;20392;-72
2022/01/18 03:14:19;;;;;;;12.77;3.40;;;22.50;99.90;;;;;;4976486;28;20122;-72
2022/01/18 03:16:46;;;;;;;11.90;3.40;;;22.50;99.90;;;;;;4976350;28;20038;-72
2022/01/18 03:19:13;;;;;;;9.27;3.28;;;22.40;99.90;;;;;;4976511;28;20025;-74
2022/01/18 03:21:41;;;;;;;12.80;3.92;;;22.40;99.90;;;;;;4975996;28;20045;-72
2022/01/18 03:29:47;;;;;;;14.35;3.97;;;22.30;99.90;;;;;;4976205;28;20102;-72
2022/01/18 03:32:14;;;;;;;11.95;3.88;;;22.10;99.90;;;;;;4976158;28;20033;-73
2022/01/18 03:34:41;;;;;;;11.98;3.58;;;22.00;99.90;;;;;;4976128;28;20472;-73
2022/01/18 03:37:08;;;;;;;12.68;4.00;;;22.00;99.90;;;;;;4975880;28;20082;-73
2022/01/18 03:39:36;;;;;;;11.23;4.63;;;21.80;99.90;;;;;;4976060;28;20033;-72
2022/01/18 03:44:49;;;;;;;15.07;4.47;;;21.60;99.90;;;;;;4976509;28;20102;-72
2022/01/18 03:47:19;;;;;;;12.57;4.68;;;21.50;99.90;;;;;;4975759;28;20039;-72
2022/01/18 03:49:46;;;;;;;12.98;4.47;;;21.40;99.90;;;;;;4975961;28;20380;-72
2022/01/18 03:52:14;;;;;;;12.45;4.97;;;21.40;99.90;;;;;;4976310;28;20105;-72
2022/01/18 03:54:47;;;;;;;12.65;5.00;;;21.40;99.90;;;;;;4975923;28;20023;-73
2022/01/18 03:57:16;;;;;;;13.02;4.70;;;21.50;99.90;;;;;;4975622;28;20031;-73
2022/01/18 03:59:47;;;;;;;18.77;4.85;;;21.40;99.90;;;;;;4975601;28;20046;-73
2022/01/18 04:02:14;;;;;;;14.15;5.00;;;21.50;99.90;;;;;;4975524;28;20023;-73
2022/01/18 04:04:43;;;;;;;14.45;5.25;;;21.50;99.90;;;;;;4975331;28;20061;-73
2022/01/18 04:07:10;;;;;;;13.23;5.30;;;21.50;99.90;;;;;;4975603;28;20062;-72
2022/01/18 04:09:38;;;;;;;13.80;4.25;;;21.40;99.90;;;;;;4975465;28;20022;-72
2022/01/18 04:12:06;;;;;;;14.38;4.50;;;21.30;99.90;;;;;;4975310;28;20026;-72
2022/01/18 04:14:33;;;;;;;7.78;4.22;;;21.30;99.90;;;;;;4975452;28;20077;-72
2022/01/18 04:27:41;;;;;;;8.77;4.20;;;21.30;99.90;;;;;;4975356;28;20034;-72
2022/01/18 04:30:09;;;;;;;7.32;3.72;;;21.20;99.90;;;;;;4975334;28;20023;-72
2022/01/18 04:32:36;;;;;;;10.57;4.40;;;21.10;99.90;;;;;;4975079;28;20023;-72
2022/01/18 04:35:04;;;;;;;9.57;3.90;;;21.00;99.90;;;;;;4975579;28;20027;-73
2022/01/18 04:37:31;;;;;;;7.75;3.25;;;21.10;99.90;;;;;;4975065;28;20027;-73
2022/01/18 04:39:59;;;;;;;5.90;3.17;;;20.90;99.90;;;;;;4974962;28;20023;-72
2022/01/18 04:42:45;;;;;;;10.73;3.42;;;20.80;99.90;;;;;;4974860;28;20027;-73
2022/01/18 04:48:27;;;;;;;7.15;3.05;;;20.70;99.90;;;;;;4959265;28;20045;-74
2022/01/18 04:51:01;;;;;;;7.68;3.45;;;20.60;99.90;;;;;;4974745;28;20110;-74
2022/01/18 04:53:32;;;;;;;10.93;3.30;;;20.60;99.90;;;;;;4974823;28;20026;-74
2022/01/18 04:56:04;;;;;;;7.50;2.65;;;20.60;99.90;;;;;;4974540;28;20575;-74
2022/01/18 04:58:32;;;;;;;7.28;2.95;;;20.60;99.90;;;;;;4974905;28;20058;-74
2022/01/18 05:01:03;;;;;;;7.40;2.38;;;20.60;99.90;;;;;;4975388;28;20023;-74
2022/01/18 05:03:31;;;;;;;7.20;2.83;;;20.50;99.90;;;;;;4974424;28;20451;-74
2022/01/18 05:06:03;;;;;;;8.15;3.20;;;20.50;99.90;;;;;;4974596;28;20054;-73
2022/01/18 05:08:30;;;;;;;7.63;2.45;;;20.50;99.90;;;;;;4974868;28;20047;-74
2022/01/18 05:10:58;;;;;;;9.63;2.80;;;20.40;99.90;;;;;;4974751;28;20514;-76
2022/01/18 05:21:34;;;;;;;3.70;1.98;;;20.30;99.90;;;;;;4979091;28;20070;-77
2022/01/18 05:24:01;;;;;;;4.07;2.55;;;20.20;99.90;;;;;;4978597;28;20078;-76
2022/01/18 05:26:29;;;;;;;6.07;2.75;;;20.20;99.90;;;;;;4978437;28;20033;-74
2022/01/18 05:28:57;;;;;;;4.75;2.47;;;20.20;99.90;;;;;;4978421;28;20169;-73
2022/01/18 05:31:27;;;;;;;6.18;2.08;;;20.00;99.90;;;;;;4978852;28;20069;-73
2022/01/18 05:33:55;;;;;;;4.65;1.70;;;20.00;99.90;;;;;;4978572;28;20439;-72
2022/01/18 05:36:22;;;;;;;2.35;1.58;;;20.10;99.90;;;;;;4978290;28;20057;-73
2022/01/18 05:38:50;;;;;;;5.68;2.25;;;20.00;99.90;;;;;;4978418;28;20080;-73
2022/01/18 05:41:18;;;;;;;5.07;2.42;;;20.00;99.90;;;;;;4978172;28;20042;-74
2022/01/18 05:43:45;;;;;;;2.45;1.50;;;20.00;99.90;;;;;;4978110;28;20050;-74
2022/01/18 05:46:13;;;;;;;4.45;2.20;;;20.00;99.90;;;;;;4977987;28;20027;-74
2022/01/18 05:48:40;;;;;;;7.70;2.47;;;20.00;99.90;;;;;;4978271;28;20353;-74
2022/01/18 05:51:08;;;;;;;5.28;1.95;;;20.00;99.90;;;;;;4977079;28;20419;-74
2022/01/18 05:53:35;;;;;;;7.15;2.20;;;20.00;99.90;;;;;;4977894;28;20053;-74
2022/01/18 05:56:04;;;;;;;3.38;1.70;;;20.00;99.90;;;;;;4977837;28;20031;-74
2022/01/18 05:58:31;;;;;;;7.68;2.45;;;20.10;99.90;;;;;;4978145;28;20058;-74
2022/01/18 06:00:59;;;;;;;8.30;2.30;;;20.10;99.90;;;;;;4978089;28;20034;-75
2022/01/18 06:03:32;;;;;;;9.02;2.80;;;20.10;99.90;;;;;;4977780;28;20023;-73
2022/01/18 06:08:45;;;;;;;7.57;2.10;;;20.10;99.90;;;;;;4978222;28;20042;-73
2022/01/18 06:11:13;;;;;;;4.80;2.03;;;20.10;99.90;;;;;;4977670;28;20630;-73
2022/01/18 06:13:40;;;;;;;5.57;2.28;;;20.10;99.90;;;;;;4977735;28;20022;-73
2022/01/18 06:16:07;;;;;;;7.00;2.30;;;20.10;99.90;;;;;;4977670;28;20539;-74
2022/01/18 06:18:35;;;;;;;4.57;2.47;;;20.00;99.90;;;;;;4977724;28;20109;-73
2022/01/18 06:21:02;;;;;;;7.28;2.83;;;20.10;99.90;;;;;;4977363;28;20110;-74
2022/01/18 06:23:29;;;;;;;6.32;1.92;;;20.10;99.90;;;;;;4977247;28;20094;-73
2022/01/18 06:25:58;;;;;;;4.93;3.00;;;20.20;99.90;;;;;;4977426;28;20061;-74
2022/01/18 06:28:25;;;;;;;11.73;2.70;;;20.20;99.90;;;;;;4977297;28;20089;-74
2022/01/18 06:30:53;;;;;;;5.43;2.17;;;20.20;99.90;;;;;;4976043;28;20055;-74
2022/01/18 06:33:20;;;;;;;7.30;2.90;;;20.20;99.90;;;;;;4977131;28;20033;-73
2022/01/18 06:35:47;;;;;;;6.72;2.95;;;20.10;99.90;;;;;;4977105;28;20043;-74
2022/01/18 06:38:14;;;;;;;4.85;2.58;;;20.00;99.90;;;;;;4977243;28;20019;-74
2022/01/18 06:40:42;;;;;;;11.65;2.75;;;20.00;99.90;;;;;;4977137;28;20042;-73
2022/01/18 06:43:09;;;;;;;6.70;3.00;;;20.00;99.90;;;;;;4976988;28;20051;-74
2022/01/18 06:45:37;;;;;;;5.80;2.15;;;19.90;99.90;;;;;;4977078;28;20030;-76
2022/01/18 06:48:04;;;;;;;7.70;2.67;;;19.90;99.90;;;;;;4976897;28;20101;-74
2022/01/18 06:50:32;;;;;;;13.80;2.85;;;19.90;99.90;;;;;;4976919;28;20117;-74
2022/01/18 06:52:59;;;;;;;7.20;2.55;;;19.90;99.90;;;;;;4976931;28;20030;-73
2022/01/18 06:55:27;;;;;;;5.45;2.72;;;19.90;99.90;;;;;;4977001;28;20027;-73
2022/01/18 06:57:54;;;;;;;8.93;2.33;;;19.90;99.90;;;;;;4976935;28;20105;-73
2022/01/18 07:00:21;;;;;;;6.68;2.67;;;19.90;99.90;;;;;;4976916;28;20030;-74
2022/01/18 07:02:49;;;;;;;6.82;3.00;;;19.90;99.90;;;;;;4976658;28;20029;-74
2022/01/18 07:05:17;;;;;;;6.80;2.67;;;20.00;99.90;;;;;;4976658;28;20027;-75
2022/01/18 07:07:47;;;;;;;4.30;2.13;;;19.90;99.90;;;;;;4976696;28;20038;-75
2022/01/18 07:10:15;;;;;;;8.27;2.25;;;20.00;99.90;;;;;;4976601;28;20034;-74
2022/01/18 07:12:45;;;;;;;5.93;2.50;;;20.00;99.90;;;;;;4976490;28;20027;-74
2022/01/18 07:15:13;;;;;;;7.80;2.92;;;20.00;99.90;;;;;;4976499;28;20035;-75
2022/01/18 07:17:40;;;;;;;4.85;2.30;;;19.90;99.90;;;;;;4975186;28;20488;-74
2022/01/18 07:20:09;;;;;;;6.05;2.38;;;19.80;99.90;;;;;;4976406;28;20026;-75
2022/01/18 07:22:36;;;;;;;4.00;2.08;;;19.90;99.90;;;;;;4974738;28;20052;-74
2022/01/18 07:25:10;;;;;;;6.70;2.72;;;19.80;99.90;;;;;;4976272;28;20456;-75
2022/01/18 07:27:38;;;;;;;5.50;1.90;;;19.80;99.90;;;;;;4976171;28;20035;-74
2022/01/18 07:30:06;;;;;;;2.20;1.67;;;19.80;99.90;;;;;;4976103;28;20038;-75
2022/01/18 07:32:33;;;;;;;6.30;2.88;;;19.80;99.90;;;;;;4976250;28;20472;-73
2022/01/18 07:35:02;;;;;;;4.05;2.17;;;19.80;99.90;;;;;;4976057;28;20486;-73
2022/01/18 07:37:29;;;;;;;8.80;2.83;;;19.80;99.90;;;;;;4976131;28;20472;-73
2022/01/18 07:39:56;;;;;;;3.17;2.25;;;19.80;99.90;;;;;;4975209;28;20115;-73
2022/01/18 07:42:24;;;;;;;10.73;2.88;;;19.80;99.90;;;;;;4975831;28;20035;-73
2022/01/18 07:44:52;;;;;;;3.53;2.22;;;19.80;99.90;;;;;;4975742;28;20054;-70
2022/01/18 07:47:20;;;;;;;6.10;2.80;;;19.80;99.90;;;;;;4975865;28;20078;-71
2022/01/18 07:49:47;;;;;;;2.90;1.60;;;19.80;99.90;;;;;;4975899;28;20069;-71
2022/01/18 07:52:15;;;;;;;3.75;2.00;;;19.80;99.90;;;;;;4975921;28;20105;-71
2022/01/18 07:54:43;;;;;;;3.10;2.50;;;19.70;99.90;;;;;;4975693;28;20464;-72
2022/01/18 07:57:15;;;;;;;6.28;2.70;;;19.70;99.90;;;;;;4975514;28;20070;-72
2022/01/18 07:59:43;;;;;;;2.40;1.80;;;19.80;99.90;;;;;;4975653;28;20025;-72
2022/01/18 08:02:10;;;;;;;5.03;1.70;;;19.70;99.90;;;;;;4975230;28;20030;-71
2022/01/18 08:04:37;;;;;;;2.85;1.60;;;19.70;99.90;;;;;;4975787;28;20030;-71
2022/01/18 08:07:05;;;;;;;2.15;1.52;;;19.80;99.90;;;;;;4975516;28;20027;-71
2022/01/18 08:09:32;;;;;;;3.30;1.60;;;19.80;99.90;;;;;;4975375;28;20034;-72
2022/01/18 08:11:59;;;;;;;3.88;2.05;;;19.80;99.90;;;;;;4975349;28;20158;-72
2022/01/18 08:14:29;;;;;;;4.55;2.63;;;19.80;99.90;;;;;;4975852;28;20615;-71
2022/01/18 08:17:04;;;;;;;6.32;2.72;;;19.80;99.90;;;;;;4987894;28;20038;-72
2022/01/18 08:19:34;;;;;;;6.28;2.10;;;19.80;99.90;;;;;;4994001;28;20026;-71
2022/01/18 08:22:03;;;;;;;9.15;2.75;;;19.80;99.90;;;;;;4993613;28;20185;-72
2022/01/18 08:24:30;;;;;;;4.28;2.42;;;19.80;99.90;;;;;;4993994;28;20018;-76
2022/01/18 08:26:58;;;;;;;3.97;2.20;;;19.80;99.90;;;;;;4989253;28;20538;-73
2022/01/18 08:29:25;;;;;;;6.43;3.35;;;19.80;99.90;;;;;;4983803;28;20057;-71
2022/01/18 08:31:52;;;;;;;6.50;3.08;;;19.80;99.90;;;;;;4984218;28;20027;-71
2022/01/18 08:34:21;;;;;;;9.05;4.15;;;19.90;99.90;;;;;;4982758;28;20022;-72
2022/01/18 08:36:50;;;;;;;11.90;3.70;;;19.80;99.90;;;;;;4983651;28;20027;-71
2022/01/18 08:39:17;;;;;;;6.18;3.15;;;19.80;99.90;;;;;;4984623;28;20014;-73
2022/01/18 08:41:45;;;;;;;10.02;3.47;;;19.90;99.90;;;;;;4983097;28;20023;-72
2022/01/18 08:44:13;;;;;;;8.95;3.60;;;19.90;99.90;;;;;;4982564;28;20026;-72
2022/01/18 08:46:40;;;;;;;5.88;3.60;;;19.80;99.90;;;;;;4984317;28;20026;-73
2022/01/18 08:49:08;;;;;;;8.02;4.00;;;19.90;99.90;;;;;;4983473;28;20103;-71
2022/01/18 08:51:36;;;;;;;11.48;4.82;;;19.90;99.90;;;;;;4982652;28;20026;-73
2022/01/18 08:54:04;;;;;;;7.35;4.25;;;19.90;99.90;;;;;;4985045;28;20019;-71
2022/01/18 08:56:32;;;;;;;17.10;5.90;;;19.90;99.90;;;;;;4982869;28;20121;-70
2022/01/18 08:58:59;;;;;;;9.45;4.75;;;19.90;99.90;;;;;;4984016;28;20069;-72
2022/01/18 09:01:27;;;;;;;13.00;5.57;;;19.90;99.90;;;;;;4981517;28;20379;-71
2022/01/18 09:03:57;;;;;;;13.07;6.15;;;19.80;99.90;;;;;;4982373;28;20022;-72
2022/01/18 09:06:25;;;;;;;11.13;6.32;;;19.90;99.90;;;;;;4982827;28;20026;-70
2022/01/18 09:08:56;;;;;;;15.02;7.60;;;19.90;99.90;;;;;;4982757;28;20023;-72
2022/01/18 09:11:26;;;;;;;14.05;7.15;;;19.90;99.90;;;;;;4982526;28;20383;-71
2022/01/18 09:13:56;;;;;;;16.83;8.25;;;19.90;99.90;;;;;;4982650;28;20076;-71
2022/01/18 09:16:23;;;;;;;19.75;9.43;;;19.80;99.90;;;;;;4982314;28;20058;-72
2022/01/18 09:18:51;;;;;;;22.70;8.57;;;19.80;99.90;;;;;;4981201;28;20109;-72
2022/01/18 09:21:19;;;;;;;20.48;9.07;;;19.80;99.90;;;;;;4982684;28;20391;-73
2022/01/18 09:23:46;;;;;;;22.40;9.82;;;19.80;99.90;;;;;;4980817;28;20046;-74
2022/01/18 09:26:14;;;;;;;18.10;8.40;;;19.80;99.90;;;;;;4983053;28;20031;-73
2022/01/18 09:28:42;;;;;;;15.20;8.45;;;19.80;99.90;;;;;;4981865;28;20030;-71
2022/01/18 09:31:10;;;;;;;29.73;10.52;;;19.80;99.90;;;;;;4983781;28;20034;-70
2022/01/18 09:33:37;;;;;;;23.63;10.13;;;19.80;99.90;;;;;;4983154;28;20527;-70
2022/01/18 09:36:05;;;;;;;24.73;11.73;;;19.80;99.90;;;;;;4983986;28;20183;-71
2022/01/18 09:38:32;;;;;;;21.02;10.63;;;19.80;99.90;;;;;;4978966;28;20543;-72
2022/01/18 09:41:08;;;;;;;26.05;10.77;;;19.70;99.90;;;;;;4982374;28;20030;-71
2022/01/18 09:43:37;;;;;;;28.30;9.98;;;19.70;99.90;;;;;;4981368;28;20015;-73
2022/01/18 09:46:05;;;;;;;18.40;9.68;;;19.70;99.90;;;;;;4981204;28;20026;-73
2022/01/18 09:48:33;;;;;;;31.02;9.98;;;19.60;99.90;;;;;;4981236;28;20019;-71
2022/01/18 09:51:01;;;;;;;24.35;8.82;;;19.60;99.90;;;;;;4981639;28;20033;-72
2022/01/18 09:53:29;;;;;;;19.70;9.30;;;19.60;99.90;;;;;;4983180;28;20479;-72
2022/01/18 09:55:56;;;;;;;19.38;9.05;;;19.60;99.90;;;;;;4981616;28;20039;-72
2022/01/18 09:58:24;;;;;;;26.42;10.38;;;19.60;99.90;;;;;;4981325;28;20041;-72
2022/01/18 10:00:52;;;;;;;23.45;9.80;;;19.50;99.90;;;;;;4980635;28;20054;-73
2022/01/18 10:03:27;;;;;;;19.67;10.00;;;19.50;99.90;;;;;;4982703;28;20018;-71
2022/01/18 10:05:55;;;;;;;21.55;9.43;;;19.50;99.90;;;;;;4984903;28;20019;-72
2022/01/18 10:08:23;;;;;;;15.65;8.98;;;19.40;99.90;;;;;;4984460;28;20019;-73
2022/01/18 10:10:55;;;;;;;16.58;9.50;;;19.50;99.90;;;;;;4984489;28;20081;-72
2022/01/18 10:13:25;;;;;;;19.05;8.55;;;19.40;99.90;;;;;;4986731;28;20541;-71
2022/01/18 10:16:11;;;;;;;18.73;9.45;;;19.40;99.90;;;;;;4984580;28;20034;-71
2022/01/18 10:18:47;;;;;;;29.70;9.63;;;19.40;99.90;;;;;;4985480;28;20026;-73
2022/01/18 10:21:38;;;;;;;19.92;9.60;;;19.40;99.90;;;;;;4985246;28;20420;-73
2022/01/18 10:24:16;;;;;;;20.58;9.02;;;19.30;99.90;;;;;;4984395;28;20043;-74
2022/01/18 10:26:46;;;;;;;21.50;9.52;;;19.30;99.90;;;;;;4985858;28;20027;-72
2022/01/18 10:29:14;;;;;;;26.90;10.90;;;19.30;99.90;;;;;;4987528;28;20014;-72
2022/01/18 10:31:57;;;;;;;21.73;9.88;;;19.30;99.90;;;;;;4979283;28;20415;-73
2022/01/18 10:35:26;;;;;;;22.30;10.70;;;19.30;99.90;;;;;;4979452;28;20030;-78
2022/01/18 10:37:30;;;;;;;23.83;8.85;;;19.30;99.90;;;;;;4973538;28;20435;-72
2022/01/18 10:40:07;;;;;;;22.55;9.45;;;19.30;99.90;;;;;;4978745;28;20103;-74
2022/01/18 10:42:50;;;;;;;20.63;9.13;;;19.30;99.90;;;;;;4986479;28;20025;-72
2022/01/18 10:45:33;;;;;;;16.83;8.40;;;19.20;99.90;;;;;;4987053;28;20030;-71
2022/01/18 10:48:11;;;;;;;20.77;8.93;;;19.20;99.90;;;;;;4991462;28;20027;-71
2022/01/18 10:50:41;;;;;;;18.50;8.80;;;19.20;99.90;;;;;;4991402;28;20019;-71
2022/01/18 10:53:21;;;;;;;20.75;10.13;;;19.20;99.90;;;;;;4991335;28;20026;-70
2022/01/18 10:55:52;;;;;;;33.60;11.15;;;19.20;99.90;;;;;;4991848;28;20018;-70
2022/01/18 10:58:21;;;;;;;26.00;10.85;;;19.20;99.90;;;;;;4991134;28;20027;-73
2022/01/18 11:00:49;;;;;;;34.67;11.35;;;19.20;99.90;;;;;;4990153;28;20022;-74
2022/01/18 11:03:16;;;;;;;28.17;11.00;;;19.20;99.90;;;;;;4984174;28;20062;-73
2022/01/18 11:05:46;;;;;;;21.35;10.35;;;19.20;99.90;;;;;;4984289;28;20026;-75
2022/01/18 11:08:16;;;;;;;26.42;9.75;;;19.20;99.90;;;;;;4985207;28;20038;-75
2022/01/18 11:10:47;;;;;;;22.17;9.27;;;19.20;99.90;;;;;;4985380;28;20022;-75
2022/01/18 11:13:22;;;;;;;23.80;9.55;;;19.20;99.90;;;;;;4985040;28;20026;-71
2022/01/18 11:16:01;;;;;;;21.10;10.07;;;19.20;99.90;;;;;;4984683;28;20144;-70
2022/01/18 11:18:35;;;;;;;35.33;9.27;;;19.20;99.90;;;;;;4984288;28;20026;-72
2022/01/18 11:21:05;;;;;;;26.00;8.55;;;19.10;99.90;;;;;;4983991;28;20511;-71
2022/01/18 11:23:35;;;;;;;19.27;8.07;;;19.10;99.90;;;;;;4986404;28;20047;-71
2022/01/18 11:26:03;;;;;;;25.58;9.23;;;19.00;99.90;;;;;;4983822;28;20033;-72
2022/01/18 11:28:33;;;;;;;18.55;8.82;;;19.00;99.90;;;;;;4986552;28;20015;-73
2022/01/18 11:31:01;;;;;;;19.58;9.68;;;19.00;99.90;;;;;;4984005;28;20041;-71
2022/01/18 11:33:29;;;;;;;20.20;8.40;;;19.10;99.90;;;;;;4983864;28;20074;-72
2022/01/18 11:36:12;;;;;;;27.88;9.45;;;19.00;99.90;;;;;;4984340;28;20053;-71
2022/01/18 11:39:11;;;;;;;22.55;7.90;;;19.10;99.90;;;;;;4985199;28;20026;-71
2022/01/18 11:41:42;;;;;;;17.55;7.13;;;19.00;99.90;;;;;;4978735;28;20105;-71
2022/01/18 11:44:27;;;;;;;28.27;9.65;;;19.00;99.90;;;;;;4984102;28;20018;-70
2022/01/18 11:46:55;;;;;;;23.25;7.47;;;19.00;99.90;;;;;;4985066;28;20053;-72
2022/01/18 11:49:33;;;;;;;26.80;8.65;;;19.00;99.90;;;;;;4985554;28;20030;-71
2022/01/18 11:52:11;;;;;;;21.60;8.30;;;19.00;99.90;;;;;;4989698;28;20093;-72
2022/01/18 11:57:22;;;;;;;21.80;7.97;;;18.90;99.90;;;;;;4993172;28;20034;-71
2022/01/18 11:59:51;;;;;;;22.45;7.07;;;19.00;99.90;;;;;;4993254;28;20030;-72
2022/01/18 12:02:42;;;;;;;24.15;7.53;;;19.00;99.90;;;;;;4990395;28;20105;-73
2022/01/18 12:05:42;;;;;;;20.00;8.70;;;18.90;99.90;;;;;;4983715;28;20169;-71
2022/01/18 12:08:09;;;;;;;27.67;8.15;;;18.90;99.90;;;;;;4983784;28;20018;-73
2022/01/18 12:10:42;;;;;;;22.67;7.60;;;19.00;99.90;;;;;;4984757;28;20039;-70
2022/01/18 12:13:29;;;;;;;36.40;9.18;;;19.00;99.90;;;;;;4985714;28;20027;-72
2022/01/18 12:16:00;;;;;;;15.68;6.53;;;18.90;99.90;;;;;;4985082;28;20076;-72
2022/01/18 12:18:34;;;;;;;37.53;8.02;;;18.90;99.90;;;;;;4985693;28;20030;-72
2022/01/18 12:21:16;;;;;;;33.42;8.98;;;18.80;99.90;;;;;;4985256;28;20031;-72
2022/01/18 12:23:45;;;;;;;27.73;9.32;;;18.80;99.90;;;;;;4991967;28;20046;-72
2022/01/18 12:29:36;;;;;;;30.17;9.02;;;18.80;99.90;;;;;;4985069;28;20476;-72
2022/01/18 12:34:46;;;;;;;25.17;8.05;;;18.90;99.90;;;;;;4983220;28;20033;-70
2022/01/18 12:37:17;;;;;;;29.15;7.88;;;18.90;99.90;;;;;;4984137;28;20031;-72
2022/01/18 12:39:54;;;;;;;22.73;7.13;;;18.90;99.90;;;;;;4985177;28;20011;-71
2022/01/18 12:45:16;;;;;;;25.02;6.95;;;18.90;99.90;;;;;;4984180;28;20026;-73
2022/01/18 12:47:53;;;;;;;30.40;7.75;;;18.90;99.90;;;;;;4983056;28;20019;-72
2022/01/18 12:50:29;;;;;;;25.92;7.20;;;18.90;99.90;;;;;;4983134;28;20467;-72
2022/01/18 12:52:59;;;;;;;25.15;7.38;;;18.90;99.90;;;;;;4984651;28;20027;-72
2022/01/18 12:55:36;;;;;;;29.02;8.93;;;18.90;99.90;;;;;;4984869;28;20042;-76
2022/01/18 12:58:06;;;;;;;23.98;7.20;;;18.90;99.90;;;;;;4984981;28;20480;-73
2022/01/18 13:00:44;;;;;;;28.45;6.35;;;18.90;99.90;;;;;;4983929;28;20021;-73
2022/01/18 13:03:24;;;;;;;24.15;7.25;;;18.90;99.90;;;;;;4983547;28;20380;-73
2022/01/18 13:05:55;;;;;;;23.58;7.57;;;18.90;99.90;;;;;;4982391;28;20027;-71
2022/01/18 13:08:31;;;;;;;31.90;6.35;;;18.90;99.90;;;;;;4985205;28;20019;-76
2022/01/18 13:10:59;;;;;;;20.90;5.97;;;18.90;99.90;;;;;;4984648;28;20070;-73
2022/01/18 13:13:32;;;;;;;34.28;8.63;;;18.90;99.90;;;;;;4984833;28;20042;-71
2022/01/18 13:26:59;;;;;;;21.63;7.30;;;18.90;99.90;;;;;;4948475;29;20025;-76
2022/01/18 13:29:29;;;;;;;27.25;7.22;;;18.90;99.90;;;;;;4948718;28;20048;-74
2022/01/18 13:32:18;;;;;;;27.70;5.97;;;18.90;99.90;;;;;;4945522;29;20019;-72
2022/01/18 13:34:54;;;;;;;17.90;6.60;;;18.90;99.90;;;;;;4944099;29;20373;-72
2022/01/18 13:37:30;;;;;;;26.60;7.35;;;18.90;99.90;;;;;;4944097;28;20086;-76
2022/01/18 13:40:02;;;;;;;16.65;6.65;;;18.90;99.90;;;;;;4948066;28;20015;-73
2022/01/18 13:42:44;;;;;;;33.80;7.88;;;18.80;99.90;;;;;;4948444;29;20035;-73
2022/01/18 13:45:19;;;;;;;36.50;7.32;;;18.80;99.90;;;;;;4948535;29;20027;-73
2022/01/18 13:47:52;;;;;;;18.00;5.70;;;18.90;99.90;;;;;;4965159;28;20030;-73
2022/01/18 13:50:41;;;;;;;20.05;6.63;;;18.80;99.90;;;;;;4947991;28;20558;-70
2022/01/18 13:53:12;;;;;;;21.83;6.88;;;18.80;99.90;;;;;;4948140;29;20500;-70
2022/01/18 13:55:53;;;;;;;30.73;7.03;;;18.80;99.90;;;;;;4947765;28;20535;-73
2022/01/18 13:58:23;;;;;;;22.75;5.88;;;18.80;99.90;;;;;;4947670;28;20400;-72
2022/01/18 14:00:52;;;;;;;27.70;6.57;;;18.80;99.90;;;;;;4948905;28;20047;-73
2022/01/18 14:03:37;;;;;;;27.90;7.45;;;18.70;99.90;;;;;;4946728;28;20027;-72
2022/01/18 14:06:06;;;;;;;23.15;6.05;;;18.80;99.90;;;;;;4948983;29;20025;-75
2022/01/18 14:08:45;;;;;;;21.98;6.53;;;18.70;99.90;;;;;;4947510;29;20519;-72
2022/01/18 14:11:18;;;;;;;23.30;6.15;;;18.70;99.90;;;;;;4948297;29;20476;-72
2022/01/18 14:13:46;;;;;;;17.75;6.25;;;18.70;99.90;;;;;;4947208;28;20484;-72
2022/01/18 14:16:28;;;;;;;15.43;6.10;;;18.70;99.90;;;;;;4948152;28;20039;-72
2022/01/18 14:19:01;;;;;;;20.80;5.78;;;18.70;99.90;;;;;;4948545;28;20028;-73
2022/01/18 14:21:32;;;;;;;13.98;6.05;;;18.70;99.90;;;;;;4947763;28;20102;-72
2022/01/18 14:24:19;;;;;;;27.35;6.75;;;18.70;99.90;;;;;;4988249;28;20503;-72
2022/01/18 14:26:53;;;;;;;19.23;6.32;;;18.60;99.90;;;;;;4987791;28;20042;-73
2022/01/18 14:29:27;;;;;;;22.08;7.20;;;18.70;99.90;;;;;;4987695;28;20022;-73
2022/01/18 14:32:13;;;;;;;15.73;6.13;;;18.70;99.90;;;;;;4986817;28;20021;-73
2022/01/18 14:34:41;;;;;;;;;;;18.70;99.90;;;;;;4987838;28;21187;-71
2022/01/18 14:37:11;;;;;;;22.20;6.43;;;18.70;99.90;;;;;;5002489;28;19913;-71
2022/01/18 14:40:03;;;;;;;20.73;7.70;;;18.70;99.90;;;;;;4985834;28;20031;-74